Time;durP1;ratioP1;P1;durP2;ratioP2;P2;SDS_P1;SDS_P2;PMS_P1;PMS_P2;Temp;Humidity;BMP_temperature;BMP_pressure;BME280_temperature;BME280_humidity;BME280_pressure;Samples;Min_cycle;Max_cycle;Signal;HPM_P1;HPM_P2
2022/09/15 00:00:52;;;;;;;9.20;8.80;;;;;;;14.90;91.93;100482.09;5030451;28;20032;-71
2022/09/15 00:03:20;;;;;;;9.23;8.73;;;;;;;14.86;91.70;100474.69;5035408;28;20036;-71
2022/09/15 00:05:46;;;;;;;9.73;9.10;;;;;;;14.85;91.68;100473.00;5030677;28;20043;-72
2022/09/15 00:08:12;;;;;;;8.07;7.63;;;;;;;14.89;90.75;100468.97;5030141;28;20036;-72
2022/09/15 00:10:46;;;;;;;9.50;9.15;;;;;;;14.99;90.71;100485.44;5032388;28;20032;-72
2022/09/15 00:13:12;;;;;;;8.18;7.78;;;;;;;14.96;90.02;100481.34;5025599;28;20473;-70
2022/09/15 00:15:37;;;;;;;8.18;7.88;;;;;;;15.04;90.85;100492.84;5025527;28;20021;-72
2022/09/15 00:18:03;;;;;;;7.28;6.97;;;;;;;14.91;90.10;100473.09;5025611;28;20029;-72
2022/09/15 00:20:28;;;;;;;7.80;7.50;;;;;;;15.06;89.97;100496.97;5027601;28;20029;-70
2022/09/15 00:22:54;;;;;;;7.45;7.15;;;;;;;15.07;89.91;100485.34;5027755;28;20098;-70
2022/09/15 00:25:19;;;;;;;9.35;8.98;;;;;;;14.98;90.62;100470.50;5032475;28;20491;-71
2022/09/15 00:27:44;;;;;;;8.30;7.80;;;;;;;15.12;90.25;100490.09;5028278;28;20053;-72
2022/09/15 00:30:10;;;;;;;7.40;7.05;;;;;;;15.15;89.75;100493.19;5035778;28;20039;-72
2022/09/15 00:32:35;;;;;;;7.03;6.63;;;;;;;15.15;nan;100493.19;5030048;28;20036;-72
2022/09/15 00:35:01;;;;;;;7.30;6.35;;;;;;;15.14;88.24;100485.41;5030297;28;20397;-72
2022/09/15 00:37:26;;;;;;;6.47;6.18;;;;;;;15.17;88.12;100488.50;5016498;28;20202;-70
2022/09/15 00:39:52;;;;;;;5.15;4.93;;;;;;;15.18;87.44;100481.38;5013563;28;20238;-71
2022/09/15 00:42:20;;;;;;;4.90;4.60;;;;;;;15.22;87.02;100478.13;5035314;28;20409;-71
2022/09/15 00:44:47;;;;;;;5.38;5.07;;;;;;;15.26;87.49;100477.75;5033667;28;20032;-71
2022/09/15 00:47:13;;;;;;;4.70;4.45;;;;;;;15.23;87.62;100470.97;5028096;28;20083;-71
2022/09/15 00:49:40;;;;;;;5.65;5.43;;;;;;;15.29;88.02;100480.03;5028535;28;20566;-71
2022/09/15 00:52:19;;;;;;;6.10;5.80;;;;;;;15.27;87.83;100482.88;5028369;28;20460;-71
2022/09/15 00:54:53;;;;;;;4.82;4.57;;;;;;;15.27;87.90;100487.38;5026253;28;20108;-71
2022/09/15 00:57:39;;;;;;;5.78;5.47;;;;;;;15.24;88.16;100493.88;5027884;28;20543;-71
2022/09/15 01:00:10;;;;;;;4.68;4.47;;;;;;;15.16;88.61;100481.53;5027937;28;20029;-72
2022/09/15 01:02:37;;;;;;;6.57;6.22;;;;;;;15.28;89.77;100492.50;5014416;28;20287;-72
2022/09/15 01:05:06;;;;;;;10.38;9.98;;;;;;;15.15;92.13;100465.78;5028125;28;20539;-70
2022/09/15 01:07:46;;;;;;;9.25;8.55;;;;;;;15.26;92.72;100486.53;5029644;28;20025;-72
2022/09/15 01:10:23;;;;;;;9.45;9.05;;;;;;;15.26;94.30;100491.84;5028718;28;20036;-73
2022/09/15 01:12:49;;;;;;;10.45;9.98;;;;;;;15.15;94.23;100482.53;5032422;28;20031;-72
2022/09/15 01:15:15;;;;;;;12.30;11.63;;;;;;;15.07;94.33;100477.38;5028625;28;20037;-72
2022/09/15 01:17:48;;;;;;;11.15;10.65;;;;;;;15.04;92.97;100479.56;5010845;28;20026;-72
2022/09/15 01:20:31;;;;;;;11.07;10.52;;;;;;;15.16;91.13;100486.06;5031722;28;20082;-72
2022/09/15 01:23:25;;;;;;;8.70;8.30;;;;;;;15.14;90.33;100490.72;5026960;28;20029;-71
2022/09/15 01:26:05;;;;;;;7.68;7.28;;;;;;;15.11;89.60;100499.91;5026110;28;20051;-71
2022/09/15 01:28:44;;;;;;;6.15;5.95;;;;;;;15.14;89.14;100499.53;5036894;28;20493;-72
2022/09/15 01:31:31;;;;;;;5.45;5.18;;;;;;;15.01;87.54;100483.44;5030358;28;20312;-72
2022/09/15 01:34:14;;;;;;;4.28;3.85;;;;;;;15.10;86.19;100502.75;5029096;28;20480;-72
2022/09/15 01:36:52;;;;;;;3.65;3.30;;;;;;;15.13;85.41;100505.00;5030820;28;20351;-71
2022/09/15 01:39:24;;;;;;;3.13;3.03;;;;;;;15.13;84.83;100502.34;5034311;28;20037;-72
2022/09/15 01:42:01;;;;;;;4.15;2.83;;;;;;;15.11;84.94;100505.22;5029431;28;20053;-70
2022/09/15 01:44:31;;;;;;;3.35;2.75;;;;;;;14.98;84.54;100489.09;5027007;28;20028;-71
2022/09/15 01:47:04;;;;;;;2.47;2.38;;;;;;;15.09;84.12;100511.72;5034690;28;20324;-72
2022/09/15 01:49:41;;;;;;;4.18;2.13;;;;;;;15.04;83.35;100499.00;5039264;28;20483;-72
2022/09/15 01:52:06;;;;;;;2.67;1.75;;;;;;;14.98;83.71;100491.75;5032034;28;20779;-72
2022/09/15 01:54:38;;;;;;;2.63;1.98;;;;;;;15.09;83.17;100507.25;5034069;28;20032;-72
2022/09/15 01:57:04;;;;;;;2.30;2.10;;;;;;;15.10;83.06;100511.53;5035071;28;20029;-72
2022/09/15 01:59:29;;;;;;;1.90;1.80;;;;;;;15.11;83.92;100522.97;5029105;28;20237;-72
2022/09/15 02:02:01;;;;;;;3.63;2.88;;;;;;;15.05;85.77;100519.25;5017585;28;20033;-71
2022/09/15 02:04:31;;;;;;;6.32;5.75;;;;;;;14.99;89.57;100518.16;5032550;28;20017;-73
2022/09/15 02:07:06;;;;;;;5.93;5.70;;;;;;;14.82;90.85;100506.91;5031983;28;20441;-71
2022/09/15 02:09:42;;;;;;;6.78;6.53;;;;;;;14.80;91.47;100500.16;5034996;28;20059;-72
2022/09/15 02:12:18;;;;;;;6.63;6.32;;;;;;;14.86;91.03;100509.22;5029469;28;20124;-72
2022/09/15 02:14:55;;;;;;;7.00;6.70;;;;;;;14.77;91.13;100495.22;5031369;28;20032;-72
2022/09/15 02:17:27;;;;;;;6.82;6.53;;;;;;;14.82;90.86;100512.22;5033206;28;20021;-71
2022/09/15 02:20:01;;;;;;;7.95;7.28;;;;;;;14.80;90.82;100508.94;5034308;28;20116;-72
2022/09/15 02:22:31;;;;;;;7.00;6.60;;;;;;;14.82;90.04;100508.75;5032126;28;20401;-70
2022/09/15 02:25:04;;;;;;;6.63;6.40;;;;;;;14.71;89.75;100501.28;5033344;28;20021;-71
2022/09/15 02:27:37;;;;;;;5.65;5.25;;;;;;;14.80;88.90;100508.94;5033393;28;20083;-71
2022/09/15 02:30:08;;;;;;;6.32;5.93;;;;;;;14.78;88.88;100512.78;5033256;28;20069;-71
2022/09/15 02:32:36;;;;;;;4.10;3.88;;;;;;;14.71;87.53;100494.13;5031124;28;20057;-71
2022/09/15 02:35:06;;;;;;;3.40;3.22;;;;;;;14.68;87.29;100489.19;5033046;28;20021;-72
2022/09/15 02:37:35;;;;;;;3.13;3.00;;;;;;;14.78;86.87;100516.25;5031696;28;20066;-72
2022/09/15 02:40:03;;;;;;;3.28;3.08;;;;;;;14.67;86.09;100506.13;5033168;28;20497;-71
2022/09/15 02:42:31;;;;;;;2.88;2.78;;;;;;;14.76;85.57;100512.16;5032466;28;20404;-72
2022/09/15 02:44:59;;;;;;;4.82;3.80;;;;;;;14.66;85.80;100517.75;5037410;28;20907;-71
2022/09/15 02:47:27;;;;;;;3.40;3.15;;;;;;;14.65;86.01;100513.44;5029526;28;20108;-71
2022/09/15 02:49:53;;;;;;;2.97;2.10;;;;;;;14.61;85.20;100509.50;5032867;28;20471;-71
2022/09/15 02:52:18;;;;;;;1.95;1.85;;;;;;;14.64;83.43;100513.66;5029824;28;20242;-70
2022/09/15 02:54:44;;;;;;;2.30;2.15;;;;;;;14.60;83.20;100497.25;5032938;28;20112;-72
2022/09/15 02:57:09;;;;;;;2.25;2.08;;;;;;;14.58;82.24;100494.78;5032675;28;20140;-72
2022/09/15 03:02:19;;;;;;;2.67;1.48;;;;;;;14.67;81.47;100503.47;5030282;28;20607;-71
2022/09/15 03:04:49;;;;;;;4.30;1.67;;;;;;;14.69;81.43;100511.25;5031772;28;20032;-70
2022/09/15 03:07:15;;;;;;;2.13;1.48;;;;;;;14.71;82.17;100503.94;5032446;28;20053;-71
2022/09/15 03:09:40;;;;;;;1.45;1.35;;;;;;;14.60;81.87;100486.63;5020614;28;20032;-71
2022/09/15 03:12:06;;;;;;;2.55;1.73;;;;;;;14.71;82.15;100501.28;5010783;28;20041;-71
2022/09/15 03:14:31;;;;;;;1.63;1.52;;;;;;;14.72;82.21;100508.22;5031994;28;20025;-71
2022/09/15 03:16:58;;;;;;;3.75;1.83;;;;;;;14.71;81.88;100507.41;5028405;28;20136;-71
2022/09/15 03:19:24;;;;;;;2.88;1.45;;;;;;;14.68;81.80;100497.16;5031222;28;20080;-71
2022/09/15 03:21:50;;;;;;;1.83;1.70;;;;;;;14.56;81.15;100480.03;5032495;28;20033;-71
2022/09/15 03:24:18;;;;;;;7.35;2.15;;;;;;;14.66;80.98;100493.84;5014852;28;20021;-70
2022/09/15 03:26:43;;;;;;;2.85;1.40;;;;;;;14.66;81.06;100488.53;5035185;28;20049;-71
2022/09/15 03:29:08;;;;;;;6.97;1.90;;;;;;;14.67;81.38;100490.19;5032540;28;20098;-71
2022/09/15 03:31:33;;;;;;;2.25;1.42;;;;;;;14.51;80.39;100466.47;5036837;28;20029;-72
2022/09/15 03:33:59;;;;;;;3.30;1.80;;;;;;;14.66;80.44;100493.84;5020436;28;20047;-71
2022/09/15 03:36:24;;;;;;;2.88;1.50;;;;;;;14.59;80.27;100485.00;5030300;28;20029;-71
2022/09/15 03:38:50;;;;;;;1.60;1.50;;;;;;;14.71;80.63;100501.28;5032662;28;20029;-70
2022/09/15 03:41:15;;;;;;;1.42;1.33;;;;;;;14.67;80.33;100498.16;5030221;28;20474;-72
2022/09/15 03:43:40;;;;;;;1.63;1.52;;;;;;;14.50;80.60;100486.03;5030628;28;20304;-72
2022/09/15 03:46:08;;;;;;;2.58;2.05;;;;;;;14.66;82.69;100512.44;5030007;28;20033;-72
2022/09/15 03:48:35;;;;;;;2.25;2.15;;;;;;;14.64;84.53;100517.13;5034246;28;20124;-72
2022/09/15 03:51:05;;;;;;;4.07;2.72;;;;;;;14.66;85.37;100515.09;5028513;28;20088;-72
2022/09/15 03:53:33;;;;;;;3.67;3.47;;;;;;;14.58;85.68;100507.22;5027958;28;20241;-71
2022/09/15 03:56:07;;;;;;;4.13;2.47;;;;;;;14.59;84.88;100515.03;5032424;28;20029;-71
2022/09/15 03:58:33;;;;;;;2.10;1.88;;;;;;;14.59;83.54;100509.72;5033834;28;20573;-71
2022/09/15 04:00:59;;;;;;;4.90;2.42;;;;;;;14.59;83.00;100511.56;5028254;28;20053;-71
2022/09/15 04:03:24;;;;;;;3.45;2.03;;;;;;;14.58;82.13;100504.56;5028826;28;20123;-71
2022/09/15 04:05:50;;;;;;;3.20;1.42;;;;;;;14.47;81.17;100489.09;5029752;28;20029;-71
2022/09/15 04:08:15;;;;;;;3.25;1.83;;;;;;;14.54;79.76;100501.41;5028408;28;20029;-70
2022/09/15 04:10:40;;;;;;;4.35;1.20;;;;;;;14.49;78.74;100489.72;5025298;28;20302;-71
2022/09/15 04:13:06;;;;;;;1.75;1.65;;;;;;;14.54;77.69;100500.59;5030113;28;20123;-71
2022/09/15 04:15:32;;;;;;;1.33;1.23;;;;;;;14.38;77.08;100478.56;5031230;28;20041;-72
2022/09/15 04:17:57;;;;;;;1.38;1.17;;;;;;;14.46;75.89;100496.22;5028515;28;20037;-71
2022/09/15 04:20:23;;;;;;;3.00;1.23;;;;;;;14.36;75.21;100491.19;5035660;28;20064;-71
2022/09/15 04:22:49;;;;;;;1.63;1.35;;;;;;;14.40;74.07;100504.94;5027864;28;20514;-71
2022/09/15 04:25:14;;;;;;;1.58;1.17;;;;;;;14.41;73.89;100493.28;5029704;28;20266;-72
2022/09/15 04:27:40;;;;;;;2.22;1.42;;;;;;;14.40;74.05;100503.09;5028647;28;20052;-72
2022/09/15 04:30:07;;;;;;;2.63;1.25;;;;;;;14.42;74.42;100507.41;5028985;28;20033;-70
2022/09/15 04:32:34;;;;;;;1.25;1.15;;;;;;;14.32;75.13;100484.59;5031288;28;20033;-71
2022/09/15 04:34:59;;;;;;;2.42;1.20;;;;;;;14.35;75.89;100489.56;5029320;28;20104;-70
2022/09/15 04:37:25;;;;;;;2.25;1.30;;;;;;;14.46;76.09;100500.69;5028038;28;20037;-72
2022/09/15 04:39:51;;;;;;;1.40;1.00;;;;;;;14.45;76.45;100497.22;5025956;28;20247;-70
2022/09/15 04:42:16;;;;;;;1.67;1.35;;;;;;;14.44;76.91;100497.41;5027691;28;20680;-72
2022/09/15 04:44:41;;;;;;;2.45;1.10;;;;;;;14.35;77.26;100489.56;5033888;28;20033;-70
2022/09/15 04:47:07;;;;;;;1.65;1.33;;;;;;;14.37;77.67;100497.31;5031242;28;20021;-70
2022/09/15 04:49:33;;;;;;;3.80;1.33;;;;;;;14.28;77.74;100485.16;5033347;28;20088;-72
2022/09/15 04:51:58;;;;;;;5.43;1.42;;;;;;;14.27;78.39;100491.47;5034090;28;20029;-70
2022/09/15 04:54:24;;;;;;;3.08;1.00;;;;;;;14.22;78.11;100486.72;5024897;28;20037;-70
2022/09/15 04:56:49;;;;;;;2.38;1.40;;;;;;;14.06;78.01;100463.81;5028432;28;20037;-70
2022/09/15 04:59:16;;;;;;;1.77;1.40;;;;;;;14.24;78.42;100497.97;5029571;28;20040;-71
2022/09/15 05:01:42;;;;;;;1.38;1.27;;;;;;;14.25;78.51;100489.00;5026367;28;20025;-71
2022/09/15 05:04:08;;;;;;;1.50;1.30;;;;;;;14.31;78.71;100490.91;5024985;28;20041;-72
2022/09/15 05:06:35;;;;;;;4.90;1.30;;;;;;;14.35;78.25;100500.16;5029658;28;20025;-71
2022/09/15 05:09:01;;;;;;;1.20;1.10;;;;;;;14.39;78.13;100496.16;5027251;28;20037;-71
2022/09/15 05:11:27;;;;;;;1.30;1.20;;;;;;;14.42;78.20;100496.78;5024745;28;20453;-71
2022/09/15 05:13:53;;;;;;;2.10;1.13;;;;;;;14.35;78.21;100488.69;5039067;28;20386;-71
2022/09/15 05:16:20;;;;;;;1.55;1.30;;;;;;;14.44;78.18;100497.41;5036479;28;20043;-71
2022/09/15 05:18:48;;;;;;;1.52;1.00;;;;;;;14.46;77.50;100495.38;5022779;28;20309;-69
2022/09/15 05:21:17;;;;;;;2.55;1.52;;;;;;;14.48;77.19;100494.22;5030881;28;20052;-72
2022/09/15 05:23:42;;;;;;;1.13;1.02;;;;;;;14.49;77.40;100495.03;5030042;28;20059;-72
2022/09/15 05:26:12;;;;;;;1.85;1.23;;;;;;;14.55;77.62;100499.66;5026385;28;20049;-72
2022/09/15 05:28:39;;;;;;;3.00;1.25;;;;;;;14.59;77.53;100506.25;5027454;28;20017;-72
2022/09/15 05:31:32;;;;;;;2.55;1.20;;;;;;;14.52;77.51;100492.81;5027126;28;20032;-73
2022/09/15 05:34:01;;;;;;;1.40;1.20;;;;;;;14.59;77.75;100506.25;5029528;28;20041;-73
2022/09/15 05:36:27;;;;;;;0.80;0.80;;;;;;;14.61;77.97;100504.19;5030980;28;20087;-73
2022/09/15 05:38:55;;;;;;;1.33;1.23;;;;;;;14.65;77.92;100504.66;5025808;28;20038;-73
2022/09/15 05:41:20;;;;;;;3.63;1.63;;;;;;;14.66;78.21;100501.81;5015266;28;20132;-73
2022/09/15 05:43:47;;;;;;;1.65;1.30;;;;;;;14.57;78.46;100487.00;5029555;28;20094;-72
2022/09/15 05:46:13;;;;;;;1.50;1.15;;;;;;;14.73;79.21;100502.72;5006522;28;20637;-72
2022/09/15 05:48:38;;;;;;;1.35;1.00;;;;;;;14.71;78.66;100499.44;5023605;28;20058;-74
2022/09/15 05:51:04;;;;;;;1.50;1.40;;;;;;;14.68;78.30;100499.81;5029751;28;20033;-73
2022/09/15 05:53:30;;;;;;;1.20;1.10;;;;;;;14.71;77.96;100493.31;5023558;28;20029;-73
2022/09/15 05:56:01;;;;;;;7.72;1.38;;;;;;;14.73;77.16;100492.09;5030581;28;20498;-73
2022/09/15 05:58:28;;;;;;;1.30;1.20;;;;;;;14.79;76.78;100496.66;5027192;28;20576;-73
2022/09/15 06:00:54;;;;;;;5.65;1.20;;;;;;;14.73;76.55;100486.78;5029626;28;20036;-72
2022/09/15 06:03:20;;;;;;;2.88;1.10;;;;;;;14.84;76.66;100492.63;5013896;28;20033;-72
2022/09/15 06:05:46;;;;;;;2.88;1.10;;;;;;;14.89;76.46;100503.53;5042658;28;20037;-72
2022/09/15 06:08:12;;;;;;;1.17;1.08;;;;;;;14.94;76.62;100499.31;5032509;28;20033;-73
2022/09/15 06:10:38;;;;;;;1.17;0.93;;;;;;;15.05;76.37;100505.97;5045448;28;20376;-73
2022/09/15 06:13:03;;;;;;;4.78;1.90;;;;;;;15.08;76.44;100504.75;5031178;28;20036;-73
2022/09/15 06:15:30;;;;;;;1.10;1.00;;;;;;;15.16;77.09;100515.28;5035819;28;20022;-73
2022/09/15 06:17:55;;;;;;;6.63;1.00;;;;;;;15.20;77.07;100506.75;5035022;28;20042;-72
2022/09/15 06:20:21;;;;;;;2.45;1.25;;;;;;;15.13;77.09;100503.16;5029464;28;20037;-72
2022/09/15 06:22:46;;;;;;;2.75;1.30;;;;;;;15.21;77.62;100510.22;5029871;28;20045;-72
2022/09/15 06:25:12;;;;;;;1.13;1.02;;;;;;;15.41;77.57;100515.72;5034734;28;20497;-73
2022/09/15 06:27:38;;;;;;;2.95;1.45;;;;;;;15.49;78.25;100512.13;5023727;28;20053;-73
2022/09/15 06:30:04;;;;;;;2.00;1.20;;;;;;;15.51;77.60;100516.25;5034259;28;20044;-73
2022/09/15 06:32:29;;;;;;;1.50;1.40;;;;;;;15.48;77.77;100505.97;5028723;28;20017;-73
2022/09/15 06:34:55;;;;;;;2.40;1.25;;;;;;;15.58;77.75;100516.31;5025333;28;20087;-73
2022/09/15 06:37:20;;;;;;;2.50;1.80;;;;;;;15.56;77.88;100516.50;5028828;28;20028;-73
2022/09/15 06:39:45;;;;;;;0.93;0.88;;;;;;;15.58;78.06;100517.13;5018120;28;20128;-73
2022/09/15 06:42:11;;;;;;;1.10;1.00;;;;;;;15.60;77.93;100512.44;5030906;28;20054;-73
2022/09/15 06:44:36;;;;;;;2.10;1.27;;;;;;;15.65;77.68;100511.84;5026286;28;20029;-73
2022/09/15 06:47:02;;;;;;;1.35;1.25;;;;;;;15.73;77.69;100508.28;5031167;28;20276;-73
2022/09/15 06:49:27;;;;;;;1.30;1.20;;;;;;;15.74;76.92;100502.78;5040551;28;20244;-73
2022/09/15 06:51:53;;;;;;;1.05;0.95;;;;;;;15.85;77.54;100501.41;5032433;28;20125;-73
2022/09/15 06:54:18;;;;;;;2.45;1.20;;;;;;;15.86;76.79;100492.44;5041170;28;20029;-73
2022/09/15 06:56:44;;;;;;;2.45;1.20;;;;;;;15.90;77.34;100509.66;5023872;28;20109;-73
2022/09/15 06:59:11;;;;;;;3.28;1.00;;;;;;;15.84;77.76;100502.44;5025806;28;20568;-73
2022/09/15 07:01:37;;;;;;;3.17;0.90;;;;;;;15.87;77.61;100517.19;5022242;28;20060;-73
2022/09/15 07:04:04;;;;;;;5.10;1.67;;;;;;;15.83;77.90;100509.59;5034655;28;20476;-73
2022/09/15 07:06:32;;;;;;;4.60;1.75;;;;;;;15.91;78.18;100516.59;5031631;28;20018;-72
2022/09/15 07:08:58;;;;;;;2.35;1.27;;;;;;;15.94;78.24;100515.41;5028007;28;20036;-73
2022/09/15 07:11:24;;;;;;;1.52;1.10;;;;;;;15.96;78.20;100522.19;5029408;28;20036;-73
2022/09/15 07:13:50;;;;;;;2.55;1.48;;;;;;;15.99;78.99;100534.28;5031377;28;20030;-73
2022/09/15 07:16:17;;;;;;;1.48;1.33;;;;;;;15.94;79.77;100542.84;5028477;28;20519;-73
2022/09/15 07:18:47;;;;;;;2.85;1.60;;;;;;;15.81;82.31;100532.09;5031242;28;20546;-74
2022/09/15 07:21:15;;;;;;;4.57;2.55;;;;;;;15.69;85.08;100542.38;5033780;28;20203;-73
2022/09/15 07:23:41;;;;;;;3.72;2.22;;;;;;;15.63;86.21;100536.00;5034720;28;20021;-73
2022/09/15 07:26:25;;;;;;;2.42;2.33;;;;;;;15.63;87.55;100537.81;5025060;28;20522;-72
2022/09/15 07:28:54;;;;;;;3.33;2.40;;;;;;;15.59;86.80;100545.38;5030391;28;20513;-72
2022/09/15 07:31:22;;;;;;;2.92;2.47;;;;;;;15.64;86.25;100547.47;5023962;28;20017;-72
2022/09/15 07:33:47;;;;;;;3.47;2.13;;;;;;;15.66;84.98;100552.56;5029114;28;20032;-72
2022/09/15 07:36:14;;;;;;;3.25;2.22;;;;;;;15.77;84.92;100554.78;5015759;28;20384;-73
2022/09/15 07:38:44;;;;;;;2.90;2.35;;;;;;;15.87;85.36;100549.13;5024852;28;20044;-72
2022/09/15 07:41:21;;;;;;;2.92;2.00;;;;;;;15.97;83.55;100557.59;5024935;28;20241;-72
2022/09/15 07:43:51;;;;;;;3.13;2.00;;;;;;;16.00;82.70;100566.03;5023583;28;20029;-72
2022/09/15 07:46:17;;;;;;;1.88;1.70;;;;;;;16.15;82.56;100571.25;5033531;28;20604;-72
2022/09/15 07:48:47;;;;;;;2.15;2.03;;;;;;;16.27;83.28;100558.25;5033602;28;20021;-72
2022/09/15 07:51:14;;;;;;;4.83;4.43;;;;;;;17.03;85.01;100562.78;5019714;28;20267;-72
2022/09/15 07:53:39;;;;;;;2.30;2.20;;;;;;;17.41;81.64;100568.44;5025605;28;20470;-73
2022/09/15 07:56:05;;;;;;;2.33;1.48;;;;;;;17.51;79.32;100570.72;5024342;28;20402;-72
2022/09/15 07:58:32;;;;;;;2.38;2.10;;;;;;;17.68;81.73;100566.66;5031872;28;20445;-72
2022/09/15 08:01:02;;;;;;;4.93;2.55;;;;;;;18.98;79.89;100575.97;5030774;28;20481;-72
2022/09/15 08:03:28;;;;;;;3.40;2.43;;;;;;;20.73;73.04;100573.47;5024744;28;20045;-73
2022/09/15 08:06:01;;;;;;;4.75;2.45;;;;;;;22.38;67.17;100579.38;5034521;28;20116;-74
2022/09/15 08:08:27;;;;;;;3.35;2.65;;;;;;;21.87;66.40;100588.06;5032426;28;20243;-74
2022/09/15 08:10:53;;;;;;;3.88;2.45;;;;;;;20.98;67.60;100579.78;5023929;28;20556;-73
2022/09/15 08:13:19;;;;;;;2.22;1.55;;;;;;;20.03;70.34;100595.13;5024614;28;20040;-74
2022/09/15 08:15:45;;;;;;;9.82;1.75;;;;;;;19.28;72.49;100592.28;5026002;28;20037;-74
2022/09/15 08:18:10;;;;;;;2.00;1.70;;;;;;;18.74;72.93;100607.69;5038598;28;20025;-72
2022/09/15 08:20:40;;;;;;;3.70;2.50;;;;;;;18.41;73.69;100619.25;5024218;28;20033;-75
2022/09/15 08:23:06;;;;;;;2.27;1.43;;;;;;;18.09;75.30;100615.56;5031157;28;20051;-73
2022/09/15 08:25:32;;;;;;;1.73;1.20;;;;;;;17.89;76.26;100623.56;5023732;28;20315;-73
2022/09/15 08:27:58;;;;;;;2.45;1.33;;;;;;;17.79;77.05;100617.75;5023883;28;20105;-73
2022/09/15 08:30:25;;;;;;;1.02;0.90;;;;;;;17.73;78.29;100623.94;5023427;28;20044;-73
2022/09/15 08:32:51;;;;;;;2.65;0.93;;;;;;;17.64;79.32;100624.13;5019368;28;20025;-73
2022/09/15 08:35:18;;;;;;;2.10;0.93;;;;;;;17.75;79.92;100619.22;5024641;28;20508;-73
2022/09/15 08:37:43;;;;;;;2.15;1.27;;;;;;;17.73;80.32;100614.06;5018854;28;20037;-73
2022/09/15 08:40:16;;;;;;;2.40;1.55;;;;;;;17.73;80.71;100615.94;5031973;28;20386;-72
2022/09/15 08:42:43;;;;;;;3.85;2.28;;;;;;;17.57;80.97;100636.63;5031295;28;20025;-74
2022/09/15 08:45:21;;;;;;;1.58;1.42;;;;;;;17.36;83.34;100637.56;5028226;28;20097;-75
2022/09/15 08:47:54;;;;;;;1.65;1.55;;;;;;;17.10;85.02;100627.63;5022520;28;20298;-75
2022/09/15 08:50:28;;;;;;;2.58;2.38;;;;;;;17.01;86.57;100640.28;5030508;28;20036;-75
2022/09/15 08:52:58;;;;;;;3.13;2.95;;;;;;;17.07;87.91;100633.34;5032935;28;20331;-74
2022/09/15 08:55:32;;;;;;;2.65;2.55;;;;;;;17.13;86.91;100627.22;5028296;28;20124;-73
2022/09/15 08:57:58;;;;;;;2.80;2.70;;;;;;;17.55;87.26;100629.81;5031361;28;20094;-73
2022/09/15 09:00:23;;;;;;;3.70;3.50;;;;;;;18.71;83.44;100634.84;5019182;28;20037;-73
2022/09/15 09:03:04;;;;;;;2.50;1.35;;;;;;;20.19;71.72;100627.78;5021257;28;20317;-73
2022/09/15 09:05:51;;;;;;;1.63;1.52;;;;;;;20.98;66.25;100628.06;5020252;28;20033;-74
2022/09/15 09:08:36;;;;;;;2.13;1.92;;;;;;;21.24;67.56;100634.97;5019626;28;20537;-73
2022/09/15 09:11:12;;;;;;;3.65;2.10;;;;;;;21.61;65.85;100635.75;5022878;28;20120;-74
2022/09/15 09:13:56;;;;;;;1.83;1.73;;;;;;;21.30;65.05;100626.84;5027024;28;20021;-73
2022/09/15 09:16:35;;;;;;;4.32;2.40;;;;;;;21.41;63.03;100637.88;5028141;28;20600;-73
2022/09/15 09:19:10;;;;;;;3.50;1.80;;;;;;;21.46;64.33;100638.03;5021219;28;20086;-73
2022/09/15 09:21:43;;;;;;;7.03;3.55;;;;;;;20.99;63.35;100641.25;5033508;28;20522;-73
2022/09/15 09:24:21;;;;;;;5.30;3.00;;;;;;;20.71;63.04;100628.38;5019422;28;20073;-74
2022/09/15 09:26:52;;;;;;;6.03;1.60;;;;;;;20.38;63.37;100640.16;5027746;28;20123;-74
2022/09/15 09:29:19;;;;;;;1.30;0.90;;;;;;;20.03;64.18;100632.63;5019568;28;20060;-74
2022/09/15 09:31:48;;;;;;;1.38;1.00;;;;;;;20.16;64.80;100646.97;5020373;28;20379;-74
2022/09/15 09:34:19;;;;;;;1.50;1.23;;;;;;;19.79;64.62;100631.56;5018137;28;20037;-74
2022/09/15 09:36:51;;;;;;;1.88;1.25;;;;;;;19.95;66.44;100635.59;5020332;28;20120;-74
2022/09/15 09:39:16;;;;;;;2.00;0.85;;;;;;;19.88;65.89;100629.44;5018596;28;20247;-74
2022/09/15 09:41:43;;;;;;;1.60;0.82;;;;;;;19.77;66.42;100622.09;5024757;28;20687;-73
2022/09/15 09:44:13;;;;;;;1.40;1.20;;;;;;;19.94;66.96;100625.88;5025510;28;20037;-73
2022/09/15 09:46:39;;;;;;;3.25;1.20;;;;;;;20.35;67.10;100628.03;5021732;28;20211;-73
2022/09/15 09:49:17;;;;;;;1.10;0.88;;;;;;;20.03;64.26;100637.97;5019679;28;20041;-73
2022/09/15 09:51:54;;;;;;;1.60;1.00;;;;;;;19.79;64.71;100614.66;5020941;28;20343;-73
2022/09/15 09:54:23;;;;;;;1.65;1.15;;;;;;;19.72;64.49;100631.59;5030994;28;20071;-73
2022/09/15 09:56:50;;;;;;;2.70;1.45;;;;;;;19.72;65.57;100642.31;5023661;28;20289;-73
2022/09/15 09:59:40;;;;;;;4.55;1.27;;;;;;;19.69;65.95;100639.22;5023186;28;20037;-73
2022/09/15 10:02:24;;;;;;;2.08;1.30;;;;;;;19.43;67.60;100637.50;5016632;28;20335;-73
2022/09/15 10:04:54;;;;;;;3.40;1.05;;;;;;;20.02;70.39;100640.91;5030655;28;20025;-74
2022/09/15 10:07:22;;;;;;;;;;;;;;;20.70;65.91;100638.25;5024518;28;20109;-72
2022/09/15 10:09:51;;;;;;;1.20;0.88;;;;;;;20.52;66.17;100646.25;5026757;28;20273;-73
2022/09/15 10:12:24;;;;;;;1.27;1.05;;;;;;;20.04;65.92;100626.25;5026987;28;20033;-73
2022/09/15 10:14:53;;;;;;;1.92;1.10;;;;;;;19.73;67.93;100648.50;5022666;28;20489;-73
2022/09/15 10:17:22;;;;;;;3.42;1.50;;;;;;;19.52;67.55;100634.38;5027492;28;20030;-73
2022/09/15 10:19:53;;;;;;;1.25;0.80;;;;;;;19.33;68.09;100617.38;5024265;28;20112;-74
2022/09/15 10:22:25;;;;;;;1.75;1.02;;;;;;;20.00;68.84;100649.13;5028321;28;20029;-74
2022/09/15 10:24:52;;;;;;;1.42;0.98;;;;;;;20.72;64.97;100646.06;5024931;28;20029;-73
2022/09/15 10:27:30;;;;;;;3.90;1.20;;;;;;;20.51;62.70;100602.53;5028955;28;20045;-73
2022/09/15 10:30:17;;;;;;;3.00;1.20;;;;;;;20.31;62.37;100639.41;5022032;28;20191;-73
2022/09/15 10:32:43;;;;;;;5.03;1.42;;;;;;;20.13;63.37;100645.53;5023399;28;20025;-73
2022/09/15 10:35:14;;;;;;;3.35;0.82;;;;;;;19.60;63.79;100637.81;5027530;28;20032;-73
2022/09/15 10:38:08;;;;;;;1.40;0.90;;;;;;;19.16;64.34;100648.31;5032125;28;20021;-72
2022/09/15 10:40:46;;;;;;;1.88;0.80;;;;;;;18.88;65.91;100668.16;5017349;28;20041;-73
2022/09/15 10:43:33;;;;;;;3.55;1.23;;;;;;;19.05;71.85;100667.69;5025590;28;20033;-72
2022/09/15 10:46:04;;;;;;;3.08;1.35;;;;;;;18.84;74.23;100648.22;5028240;28;20033;-73
2022/09/15 10:48:49;;;;;;;3.35;1.25;;;;;;;18.90;74.51;100666.09;5028400;28;20411;-74
2022/09/15 10:51:42;;;;;;;2.58;1.15;;;;;;;19.03;74.96;100632.31;5026058;28;20123;-75
2022/09/15 10:54:14;;;;;;;2.80;1.23;;;;;;;19.59;74.50;100661.09;5027530;28;20029;-75
2022/09/15 10:56:43;;;;;;;1.30;1.20;;;;;;;20.51;73.50;100658.84;5025746;28;20029;-76
2022/09/15 10:59:14;;;;;;;2.08;1.98;;;;;;;21.84;65.65;100652.97;5034271;28;20075;-76
2022/09/15 11:01:51;;;;;;;2.28;2.03;;;;;;;21.68;65.91;100666.00;5020991;28;20422;-73
2022/09/15 11:04:41;;;;;;;1.70;1.60;;;;;;;22.18;65.15;100660.28;5027602;28;20063;-73
2022/09/15 11:07:25;;;;;;;3.28;1.75;;;;;;;22.35;66.48;100671.22;5028802;28;20033;-74
2022/09/15 11:10:07;;;;;;;2.08;1.98;;;;;;;23.11;68.43;100678.59;5030113;28;20120;-72
2022/09/15 11:13:03;;;;;;;1.40;1.30;;;;;;;23.57;63.75;100671.44;5022426;28;20025;-74
2022/09/15 11:15:44;;;;;;;1.42;1.20;;;;;;;23.60;65.87;100685.25;5027852;28;20049;-75
2022/09/15 11:18:32;;;;;;;3.90;1.67;;;;;;;22.97;66.34;100681.53;5040024;28;20693;-74
2022/09/15 11:21:17;;;;;;;3.25;1.40;;;;;;;22.20;66.69;100686.94;5020730;28;20038;-74
2022/09/15 11:23:50;;;;;;;1.55;1.33;;;;;;;21.48;71.64;100682.38;5037980;28;20507;-75
2022/09/15 11:26:22;;;;;;;2.47;1.27;;;;;;;21.04;72.23;100668.22;5026741;28;20107;-76
2022/09/15 11:28:57;;;;;;;2.00;1.90;;;;;;;20.64;73.48;100673.19;5034678;28;20029;-74
2022/09/15 11:31:49;;;;;;;3.10;1.90;;;;;;;20.38;74.72;100668.84;5027856;28;20027;-74
2022/09/15 11:34:30;;;;;;;3.05;2.08;;;;;;;20.16;76.37;100663.84;5029143;28;20260;-74
2022/09/15 11:37:01;;;;;;;3.58;2.00;;;;;;;20.23;75.98;100653.06;5026943;28;20336;-73
2022/09/15 11:39:34;;;;;;;2.67;1.92;;;;;;;21.44;75.24;100658.91;5026736;28;20515;-73